KWYS/WYS METAR and TAF weather

Enter ICAO airport designator
Station Type Date Time Source
KWYS METAR 2020/11/19 13:05 UTC NOAA

KWYS 191305Z AUTO 21012G17KT 10SM FEW055 SCT065 BKN075 M01/M02 A2995 RMK AO2


Station Type Date Time Source
KWYS Decoded METAR 2020/11/19 13:05 UTC NOAA

West Yellowstone, MT, United States (KWYS) 44-41N 111-07W
Nov 19, 2020 - 08:05 AM EST / 2020.11.19 1305 UTC
Wind: from the SSW (210 degrees) at 14 MPH (12 KT) gusting to 20 MPH (17 KT):0
Visibility: 10 mile(s):0
Sky conditions: mostly cloudy
Temperature: 30 F (-1 C)
Windchill: 19 F (-7 C):1
Dew Point: 28 F (-2 C)
Relative Humidity: 92%
Pressure (altimeter): 29.95 in. Hg (1014 hPa)
ob: KWYS 191305Z AUTO 21012G17KT 10SM FEW055 SCT065 BKN075 M01/M02 A2995 RMK AO2
cycle: 13

Station Type Date Time Source
KWYS TAF 2020/11/24 06:29 UTC NOAA

TAF KWYS 240529Z 2406/2506 VRB05KT P6SM BKN050
FM241800 21007KT P6SM SCT050
FM250000 VRB05KT P6SM BKN025

Example: see airport list